Time;durP1;ratioP1;P1;durP2;ratioP2;P2;SDS_P1;SDS_P2;PMS_P1;PMS_P2;Temp;Humidity;BMP_temperature;BMP_pressure;BME280_temperature;BME280_humidity;BME280_pressure;Samples;Min_cycle;Max_cycle;Signal;HPM_P1;HPM_P2
2020/12/20 00:01:46;;;;;;;10.30;5.65;;;10.90;99.90;;;;;;5110390;28;20066;-70
2020/12/20 00:04:12;;;;;;;9.52;5.65;;;10.90;99.90;;;;;;5110858;28;20449;-70
2020/12/20 00:06:40;;;;;;;9.10;5.85;;;10.80;99.90;;;;;;5110231;28;20024;-70
2020/12/20 00:09:09;;;;;;;9.15;5.88;;;10.70;99.90;;;;;;5110779;28;20400;-70
2020/12/20 00:11:40;;;;;;;8.95;5.60;;;10.70;99.90;;;;;;5110710;28;20068;-70
2020/12/20 00:14:26;;;;;;;9.27;5.63;;;10.70;99.90;;;;;;5097935;28;20027;-70
2020/12/20 00:16:51;;;;;;;9.82;5.82;;;10.70;99.90;;;;;;5096355;28;20051;-70
2020/12/20 00:19:16;;;;;;;10.93;5.90;;;10.60;99.90;;;;;;5096446;28;20067;-70
2020/12/20 00:21:42;;;;;;;10.80;6.22;;;10.60;99.90;;;;;;5096868;28;20028;-70
2020/12/20 00:24:10;;;;;;;9.57;6.20;;;10.60;99.90;;;;;;5096860;28;20035;-70
2020/12/20 00:26:36;;;;;;;11.55;6.93;;;10.60;99.90;;;;;;5095679;28;20051;-70
2020/12/20 00:29:03;;;;;;;10.73;7.03;;;10.50;99.90;;;;;;5096234;28;20100;-70
2020/12/20 00:31:29;;;;;;;11.15;6.80;;;10.50;99.90;;;;;;5096732;28;20349;-70
2020/12/20 00:33:55;;;;;;;10.00;6.57;;;10.40;99.90;;;;;;5096712;28;20024;-70
2020/12/20 00:36:20;;;;;;;10.40;6.70;;;10.40;99.90;;;;;;5096673;28;20615;-70
2020/12/20 00:38:46;;;;;;;10.95;6.65;;;10.30;99.90;;;;;;5096329;28;20431;-70
2020/12/20 00:41:11;;;;;;;11.52;6.93;;;10.30;99.90;;;;;;5096204;28;20047;-70
2020/12/20 00:43:37;;;;;;;15.00;7.35;;;10.20;99.90;;;;;;5096512;28;20036;-70
2020/12/20 00:46:02;;;;;;;9.90;7.00;;;10.10;99.90;;;;;;5095036;28;20027;-69
2020/12/20 00:48:28;;;;;;;10.50;7.15;;;10.00;99.90;;;;;;5095179;28;20024;-70
2020/12/20 00:50:53;;;;;;;11.77;6.70;;;10.00;99.90;;;;;;5095778;28;20028;-69
2020/12/20 00:53:19;;;;;;;12.27;7.50;;;9.90;99.90;;;;;;5096327;28;20020;-70
2020/12/20 00:55:48;;;;;;;10.60;6.90;;;9.70;99.90;;;;;;5077639;28;20035;-70
2020/12/20 00:58:14;;;;;;;10.38;6.85;;;9.60;99.90;;;;;;5096259;28;20369;-69
2020/12/20 01:00:39;;;;;;;10.18;6.10;;;9.60;99.90;;;;;;5095868;28;20024;-70
2020/12/20 01:03:05;;;;;;;12.93;7.15;;;9.60;99.90;;;;;;5096106;28;20023;-69
2020/12/20 01:05:31;;;;;;;9.82;6.50;;;9.60;99.90;;;;;;5096076;28;20520;-69
2020/12/20 01:07:56;;;;;;;14.70;7.43;;;9.50;99.90;;;;;;5096082;28;20046;-69
2020/12/20 01:10:22;;;;;;;10.45;7.50;;;9.50;99.90;;;;;;5096003;28;20028;-70
2020/12/20 01:12:47;;;;;;;10.85;7.68;;;9.50;99.90;;;;;;5095975;28;20460;-69
2020/12/20 01:15:13;;;;;;;11.57;7.20;;;9.50;99.90;;;;;;5095924;28;20465;-69
2020/12/20 01:17:38;;;;;;;11.18;7.07;;;9.50;99.90;;;;;;5095555;28;20457;-68
2020/12/20 01:20:05;;;;;;;15.43;7.53;;;9.50;99.90;;;;;;5095781;28;20020;-68
2020/12/20 01:22:30;;;;;;;10.38;7.13;;;9.40;99.90;;;;;;5095090;28;20016;-69
2020/12/20 01:24:56;;;;;;;11.00;8.48;;;9.30;99.90;;;;;;5094113;28;20031;-69
2020/12/20 01:27:22;;;;;;;14.48;8.20;;;9.30;99.90;;;;;;5095337;28;20024;-70
2020/12/20 01:29:48;;;;;;;16.25;10.50;;;9.30;99.90;;;;;;5093755;28;20362;-70
2020/12/20 01:32:16;;;;;;;12.65;7.30;;;9.30;99.90;;;;;;5095304;28;20465;-69
2020/12/20 01:34:43;;;;;;;16.10;9.48;;;9.20;99.90;;;;;;5094336;28;20034;-69
2020/12/20 01:37:09;;;;;;;15.77;9.55;;;9.20;99.90;;;;;;5093648;28;20111;-70
2020/12/20 01:39:35;;;;;;;11.63;8.30;;;9.10;99.90;;;;;;5095137;28;20476;-70
2020/12/20 01:42:00;;;;;;;22.42;12.18;;;9.10;99.90;;;;;;5095288;28;20055;-69
2020/12/20 01:44:26;;;;;;;19.30;11.88;;;9.00;99.90;;;;;;5095389;28;20354;-69
2020/12/20 01:46:54;;;;;;;17.08;10.48;;;8.90;99.90;;;;;;5093487;28;20104;-70
2020/12/20 01:49:20;;;;;;;13.95;9.68;;;8.80;99.90;;;;;;5094701;28;20054;-69
2020/12/20 01:51:47;;;;;;;14.00;10.00;;;8.80;99.90;;;;;;5095195;28;20055;-69
2020/12/20 01:54:13;;;;;;;15.60;9.75;;;8.80;99.90;;;;;;5095189;28;20020;-69
2020/12/20 01:56:38;;;;;;;17.67;10.70;;;8.90;99.90;;;;;;5094844;28;20457;-69
2020/12/20 01:59:04;;;;;;;16.35;9.85;;;8.90;99.90;;;;;;5094807;28;20024;-69
2020/12/20 02:01:30;;;;;;;14.75;9.75;;;8.90;99.90;;;;;;5094578;28;20044;-69
2020/12/20 02:03:55;;;;;;;12.13;9.48;;;8.90;99.90;;;;;;5094984;28;20536;-69
2020/12/20 02:06:21;;;;;;;16.40;10.02;;;8.80;99.90;;;;;;5094667;28;20484;-69
2020/12/20 02:08:46;;;;;;;14.48;9.20;;;8.80;99.90;;;;;;5094886;28;20047;-69
2020/12/20 02:11:16;;;;;;;13.23;9.45;;;8.80;99.90;;;;;;5094815;28;20025;-69
2020/12/20 02:13:44;;;;;;;16.13;9.95;;;8.80;99.90;;;;;;5094206;28;20023;-69
2020/12/20 02:16:12;;;;;;;15.40;10.02;;;8.80;99.90;;;;;;5094447;28;20028;-69
2020/12/20 02:18:38;;;;;;;16.60;10.50;;;8.80;99.90;;;;;;5094199;28;20144;-69
2020/12/20 02:21:11;;;;;;;16.00;10.80;;;8.80;99.90;;;;;;5094591;28;20120;-69
2020/12/20 02:23:38;;;;;;;;;;;8.80;99.90;;;;;;5095097;28;20045;-69
2020/12/20 02:26:04;;;;;;;15.95;10.23;;;8.80;99.90;;;;;;5094612;28;20379;-69
2020/12/20 02:28:29;;;;;;;15.43;10.02;;;8.80;99.90;;;;;;5094567;28;20020;-69
2020/12/20 02:30:55;;;;;;;15.30;10.18;;;8.80;99.90;;;;;;5094486;28;20103;-69
2020/12/20 02:33:20;;;;;;;14.88;10.00;;;8.70;99.90;;;;;;5094504;28;20067;-69
2020/12/20 02:35:46;;;;;;;13.38;9.77;;;8.70;99.90;;;;;;5094177;28;20027;-69
2020/12/20 02:38:12;;;;;;;15.18;10.07;;;8.70;99.90;;;;;;5092998;28;20050;-69
2020/12/20 02:40:39;;;;;;;14.52;9.20;;;8.60;99.90;;;;;;5094334;28;20032;-69
2020/12/20 02:43:05;;;;;;;16.70;9.90;;;8.60;99.90;;;;;;5092528;28;20034;-69
2020/12/20 02:45:30;;;;;;;16.83;9.25;;;8.50;99.90;;;;;;5092480;28;20107;-69
2020/12/20 02:47:56;;;;;;;15.07;9.98;;;8.50;99.90;;;;;;5093750;28;20023;-70
2020/12/20 02:50:21;;;;;;;15.52;9.55;;;8.50;99.90;;;;;;5092515;28;20027;-70
2020/12/20 02:52:47;;;;;;;11.90;9.38;;;8.60;99.90;;;;;;5093105;28;20082;-69
2020/12/20 02:55:12;;;;;;;16.40;9.43;;;8.60;99.90;;;;;;5094224;28;20028;-70
2020/12/20 02:57:38;;;;;;;14.85;9.38;;;8.60;99.90;;;;;;5092788;28;20123;-69
2020/12/20 03:00:04;;;;;;;13.68;8.80;;;8.60;99.90;;;;;;5093609;28;20032;-69
2020/12/20 03:02:29;;;;;;;16.92;9.00;;;8.60;99.90;;;;;;5092258;28;20036;-69
2020/12/20 03:04:55;;;;;;;14.80;9.10;;;8.70;99.90;;;;;;5094072;28;20423;-69
2020/12/20 03:07:20;;;;;;;14.52;8.80;;;8.70;99.90;;;;;;5094010;28;20453;-69
2020/12/20 03:09:50;;;;;;;15.20;8.10;;;8.80;99.90;;;;;;5093771;28;20457;-69
2020/12/20 03:12:17;;;;;;;12.90;7.95;;;8.70;99.90;;;;;;5092484;28;20354;-69
2020/12/20 03:14:43;;;;;;;11.38;8.07;;;8.70;99.90;;;;;;5092187;28;20469;-69
2020/12/20 03:17:09;;;;;;;13.73;8.40;;;8.70;99.90;;;;;;5093386;28;20028;-69
2020/12/20 03:19:34;;;;;;;16.70;9.27;;;8.70;99.90;;;;;;5093727;28;20103;-69
2020/12/20 03:22:00;;;;;;;14.73;8.82;;;8.60;99.90;;;;;;5093879;28;20492;-69
2020/12/20 03:24:25;;;;;;;11.38;8.77;;;8.60;99.90;;;;;;5093943;28;20028;-69
2020/12/20 03:26:51;;;;;;;12.88;8.55;;;8.50;99.90;;;;;;5092740;28;20103;-69
2020/12/20 03:29:16;;;;;;;12.70;8.43;;;8.50;99.90;;;;;;5093638;28;20056;-69
2020/12/20 03:31:42;;;;;;;13.45;8.60;;;8.40;99.90;;;;;;5093829;28;20032;-69
2020/12/20 03:34:07;;;;;;;16.65;9.07;;;8.40;99.90;;;;;;5093617;28;20034;-69
2020/12/20 03:36:33;;;;;;;13.90;9.32;;;8.40;99.90;;;;;;5092322;28;20063;-69
2020/12/20 03:38:58;;;;;;;15.27;9.57;;;8.50;99.90;;;;;;5093779;28;20039;-69
2020/12/20 03:41:24;;;;;;;16.08;9.02;;;8.60;99.90;;;;;;5093658;28;20109;-69
2020/12/20 03:43:49;;;;;;;15.30;8.77;;;8.50;99.90;;;;;;5093712;28;20074;-69
2020/12/20 03:46:15;;;;;;;10.25;7.90;;;8.50;99.90;;;;;;5093482;28;20055;-69
2020/12/20 03:48:41;;;;;;;15.07;9.27;;;8.50;99.90;;;;;;5095510;28;20078;-69
2020/12/20 03:51:06;;;;;;;12.05;8.45;;;8.50;99.90;;;;;;5097579;28;20024;-69
2020/12/20 03:53:32;;;;;;;18.30;9.77;;;8.50;99.90;;;;;;5097549;28;20031;-69
2020/12/20 03:55:58;;;;;;;15.00;9.68;;;8.60;99.90;;;;;;5097511;28;20473;-69
2020/12/20 03:58:23;;;;;;;13.45;8.57;;;8.60;99.90;;;;;;5097168;28;20093;-69
2020/12/20 04:00:49;;;;;;;12.93;8.77;;;8.60;99.90;;;;;;5096769;28;20446;-70
2020/12/20 04:03:14;;;;;;;15.45;9.52;;;8.60;99.90;;;;;;5097328;28;20024;-69
2020/12/20 04:05:40;;;;;;;15.48;9.02;;;8.60;99.90;;;;;;5096100;28;20079;-69
2020/12/20 04:08:05;;;;;;;15.48;9.07;;;8.70;99.90;;;;;;5096249;28;20017;-69
2020/12/20 04:10:32;;;;;;;14.30;8.77;;;8.70;99.90;;;;;;5097170;28;20020;-69
2020/12/20 04:12:57;;;;;;;15.65;9.40;;;8.70;99.90;;;;;;5097132;28;20124;-69
2020/12/20 04:15:23;;;;;;;18.02;9.52;;;8.70;99.90;;;;;;5096766;28;20028;-69
2020/12/20 04:17:48;;;;;;;11.88;8.73;;;8.70;99.90;;;;;;5096749;28;20031;-69
2020/12/20 04:20:14;;;;;;;13.20;8.98;;;8.60;99.90;;;;;;5097016;28;20105;-69
2020/12/20 04:22:39;;;;;;;13.27;8.55;;;8.60;99.90;;;;;;5096864;28;20556;-69
2020/12/20 04:25:05;;;;;;;17.38;9.73;;;8.50;99.90;;;;;;5096934;28;20024;-69
2020/12/20 04:27:30;;;;;;;14.60;9.13;;;8.50;99.90;;;;;;5094999;28;20024;-69
2020/12/20 04:29:58;;;;;;;14.75;8.93;;;8.40;99.90;;;;;;5095384;28;20153;-69
2020/12/20 04:32:23;;;;;;;14.90;9.77;;;8.40;99.90;;;;;;5094971;28;20435;-69
2020/12/20 04:34:49;;;;;;;13.38;9.80;;;8.40;99.90;;;;;;5096700;28;20024;-69
2020/12/20 04:37:14;;;;;;;14.90;9.27;;;8.40;99.90;;;;;;5096362;28;20114;-69
2020/12/20 04:39:40;;;;;;;13.18;8.82;;;8.40;99.90;;;;;;5096372;28;20036;-69
2020/12/20 04:42:07;;;;;;;12.20;9.02;;;8.40;99.90;;;;;;5096500;28;20028;-69
2020/12/20 04:44:33;;;;;;;15.30;10.25;;;8.40;99.90;;;;;;5096536;28;20019;-69
2020/12/20 04:46:59;;;;;;;16.58;9.60;;;8.40;99.90;;;;;;5078066;28;20111;-69
2020/12/20 04:49:29;;;;;;;15.98;9.32;;;8.40;99.90;;;;;;5096151;28;20468;-69
2020/12/20 04:51:57;;;;;;;14.15;9.38;;;8.50;99.90;;;;;;5096133;28;20035;-69
2020/12/20 04:54:24;;;;;;;18.25;9.70;;;8.40;99.90;;;;;;5096287;28;20471;-69
2020/12/20 04:56:49;;;;;;;14.70;8.98;;;8.30;99.90;;;;;;5096281;28;20107;-69
2020/12/20 04:59:15;;;;;;;14.77;10.02;;;8.30;99.90;;;;;;5096162;28;20107;-68
2020/12/20 05:01:41;;;;;;;15.95;9.75;;;8.30;99.90;;;;;;5094355;28;20047;-69
2020/12/20 05:04:07;;;;;;;16.95;10.07;;;8.20;99.90;;;;;;5095891;28;20457;-69
2020/12/20 05:06:34;;;;;;;17.60;10.45;;;8.20;99.90;;;;;;5096111;28;20065;-69
2020/12/20 05:09:02;;;;;;;17.20;10.95;;;8.20;99.90;;;;;;5095784;28;20099;-69
2020/12/20 05:11:33;;;;;;;19.17;11.32;;;8.20;99.90;;;;;;5095468;28;20469;-69
2020/12/20 05:13:59;;;;;;;14.20;9.30;;;8.30;99.90;;;;;;5095418;28;20035;-69
2020/12/20 05:16:35;;;;;;;17.05;10.20;;;8.40;99.90;;;;;;5095929;28;20427;-69
2020/12/20 05:19:01;;;;;;;18.88;9.77;;;8.40;99.90;;;;;;5095572;28;20023;-69
2020/12/20 05:21:28;;;;;;;14.80;10.07;;;8.40;99.90;;;;;;5095460;28;20020;-69
2020/12/20 05:23:54;;;;;;;13.85;9.35;;;8.30;99.90;;;;;;5095243;28;20070;-69
2020/12/20 05:26:29;;;;;;;14.65;10.13;;;8.30;99.90;;;;;;5095154;28;20025;-68
2020/12/20 05:29:11;;;;;;;14.50;10.30;;;8.30;99.90;;;;;;5095164;28;20485;-69
2020/12/20 05:31:37;;;;;;;15.40;10.85;;;8.40;99.90;;;;;;5095646;28;20107;-69
2020/12/20 05:34:04;;;;;;;17.65;10.63;;;8.40;99.90;;;;;;5093813;28;20066;-69
2020/12/20 05:36:30;;;;;;;14.55;10.48;;;8.40;99.90;;;;;;5095210;28;20016;-69
2020/12/20 05:39:16;;;;;;;13.25;8.80;;;8.50;99.90;;;;;;5094329;28;20500;-69
2020/12/20 05:41:42;;;;;;;15.77;10.98;;;8.40;99.90;;;;;;5095365;28;20032;-69
2020/12/20 05:44:12;;;;;;;21.52;11.43;;;8.30;99.90;;;;;;5095424;28;20081;-69
2020/12/20 05:46:41;;;;;;;18.23;10.32;;;8.20;99.90;;;;;;5095356;28;20027;-68
2020/12/20 05:49:19;;;;;;;15.80;11.13;;;8.20;99.90;;;;;;5093532;28;20024;-69
2020/12/20 05:52:06;;;;;;;19.50;10.63;;;8.20;99.90;;;;;;5094999;28;20028;-69
2020/12/20 05:54:33;;;;;;;18.48;10.80;;;8.20;99.90;;;;;;5094579;28;20024;-69
2020/12/20 05:57:19;;;;;;;15.38;10.57;;;8.20;99.90;;;;;;5094883;28;20062;-69
2020/12/20 05:59:47;;;;;;;17.10;10.73;;;8.20;99.90;;;;;;5094118;28;20143;-68
2020/12/20 06:02:13;;;;;;;16.58;10.65;;;8.40;99.90;;;;;;5094397;28;20051;-69
2020/12/20 06:04:40;;;;;;;15.75;10.73;;;8.40;99.90;;;;;;5094716;28;20016;-69
2020/12/20 06:07:09;;;;;;;15.02;10.25;;;8.50;99.90;;;;;;5094007;28;20372;-69
2020/12/20 06:09:52;;;;;;;15.77;10.95;;;8.50;99.90;;;;;;5094943;28;20044;-68
2020/12/20 06:12:20;;;;;;;17.20;10.85;;;8.50;99.90;;;;;;5093350;28;20039;-69
2020/12/20 06:14:47;;;;;;;16.70;10.65;;;8.50;99.90;;;;;;5094829;28;20110;-69
2020/12/20 06:17:16;;;;;;;17.23;11.45;;;8.50;99.90;;;;;;5094759;28;20027;-69
2020/12/20 06:19:53;;;;;;;14.98;10.93;;;8.50;99.90;;;;;;5092957;28;20032;-69
2020/12/20 06:22:21;;;;;;;17.50;10.85;;;8.50;99.90;;;;;;5094349;28;20024;-68
2020/12/20 06:24:48;;;;;;;16.17;10.23;;;8.50;99.90;;;;;;5094389;28;20016;-69
2020/12/20 06:27:16;;;;;;;17.48;11.38;;;8.40;99.90;;;;;;5094657;28;20044;-69
2020/12/20 06:29:48;;;;;;;16.50;10.88;;;8.50;99.90;;;;;;5092840;28;20070;-69
2020/12/20 06:32:19;;;;;;;18.70;10.85;;;8.50;99.90;;;;;;5094628;28;20367;-68
2020/12/20 06:34:45;;;;;;;15.18;10.52;;;8.50;99.90;;;;;;5094593;28;20024;-69
2020/12/20 06:37:11;;;;;;;14.90;11.20;;;8.50;99.90;;;;;;5094023;28;20502;-69
2020/12/20 06:39:40;;;;;;;15.25;11.02;;;8.60;99.90;;;;;;5094482;28;20056;-69
2020/12/20 06:42:05;;;;;;;17.92;10.68;;;8.60;99.90;;;;;;5094121;28;20102;-69
2020/12/20 06:44:31;;;;;;;17.10;11.20;;;8.70;99.90;;;;;;5094376;28;20054;-68
2020/12/20 06:46:57;;;;;;;18.42;11.40;;;8.90;99.90;;;;;;5094055;28;20027;-69
2020/12/20 06:49:35;;;;;;;17.48;11.25;;;8.90;99.90;;;;;;5094349;28;20046;-69
2020/12/20 06:52:22;;;;;;;16.92;11.18;;;8.90;99.90;;;;;;5094310;28;20512;-69
2020/12/20 06:55:16;;;;;;;16.08;11.32;;;8.90;99.90;;;;;;5094162;28;20036;-68
2020/12/20 07:09:05;;;;;;;17.38;11.80;;;9.00;99.90;;;;;;5112244;27;20445;-69
2020/12/20 07:11:31;;;;;;;20.27;12.15;;;9.10;99.90;;;;;;5111899;28;20024;-69
2020/12/20 07:13:58;;;;;;;18.25;11.68;;;9.10;99.90;;;;;;5111278;28;20016;-69
2020/12/20 07:16:36;;;;;;;18.65;12.68;;;9.10;99.90;;;;;;5111555;28;20043;-69
2020/12/20 07:19:03;;;;;;;20.38;12.73;;;9.20;99.90;;;;;;5110349;28;20077;-69
2020/12/20 07:24:26;;;;;;;19.75;12.80;;;9.10;99.90;;;;;;5091823;28;20349;-68
2020/12/20 07:26:56;;;;;;;20.00;12.75;;;9.10;99.90;;;;;;5089763;28;20529;-67
2020/12/20 07:29:23;;;;;;;18.45;12.48;;;9.10;99.90;;;;;;5091402;28;20100;-68
2020/12/20 07:31:51;;;;;;;19.35;12.73;;;9.10;99.90;;;;;;5091501;28;20020;-69
2020/12/20 07:34:17;;;;;;;19.77;12.57;;;9.10;99.90;;;;;;5091526;28;20016;-69
2020/12/20 07:36:43;;;;;;;19.17;13.25;;;9.00;99.90;;;;;;5091176;28;20017;-69
2020/12/20 07:39:11;;;;;;;21.30;13.30;;;9.10;99.90;;;;;;5091369;28;20020;-68
2020/12/20 07:41:37;;;;;;;19.50;13.10;;;9.10;99.90;;;;;;5091284;28;20412;-69
2020/12/20 07:44:07;;;;;;;19.63;13.15;;;9.10;99.90;;;;;;5090733;28;20034;-69
2020/12/20 07:46:33;;;;;;;22.15;13.23;;;9.10;99.90;;;;;;5089750;28;20496;-69
2020/12/20 07:49:04;;;;;;;17.27;12.80;;;9.10;99.90;;;;;;5091190;28;20021;-69
2020/12/20 07:51:30;;;;;;;22.27;12.85;;;9.20;99.90;;;;;;5091153;28;20450;-69
2020/12/20 07:53:58;;;;;;;19.10;13.07;;;9.20;99.90;;;;;;5090844;28;20020;-69
2020/12/20 07:56:29;;;;;;;17.13;12.02;;;9.20;99.90;;;;;;5090486;28;20024;-69
2020/12/20 07:59:00;;;;;;;16.63;11.98;;;9.10;99.90;;;;;;5089175;28;20016;-69
2020/12/20 08:01:26;;;;;;;19.90;11.98;;;9.10;99.90;;;;;;5090687;28;20025;-69
2020/12/20 08:04:14;;;;;;;18.88;12.13;;;9.10;99.90;;;;;;5090554;28;20020;-69
2020/12/20 08:06:43;;;;;;;18.67;12.45;;;9.10;99.90;;;;;;5090837;28;20048;-69
2020/12/20 08:09:25;;;;;;;19.35;13.15;;;9.10;99.90;;;;;;5090359;28;20012;-69
2020/12/20 08:11:53;;;;;;;18.70;12.25;;;9.10;99.90;;;;;;5089319;28;20020;-68
2020/12/20 08:14:20;;;;;;;19.00;13.18;;;9.20;99.90;;;;;;5090818;28;20514;-69
2020/12/20 08:16:50;;;;;;;16.95;11.52;;;9.10;99.90;;;;;;5090707;28;20461;-69
2020/12/20 08:19:20;;;;;;;15.82;11.45;;;9.20;99.90;;;;;;5090379;28;20024;-69
2020/12/20 08:22:05;;;;;;;16.10;12.30;;;9.20;99.90;;;;;;5088441;28;20119;-69
2020/12/20 08:24:35;;;;;;;19.48;11.75;;;9.20;99.90;;;;;;5090505;28;20016;-69
2020/12/20 08:27:15;;;;;;;17.90;11.77;;;9.20;99.90;;;;;;5072880;28;20067;-68
2020/12/20 08:29:41;;;;;;;16.40;11.43;;;9.20;99.90;;;;;;5088907;28;20052;-69
2020/12/20 08:32:16;;;;;;;15.13;10.45;;;9.30;99.90;;;;;;5090074;28;20016;-69
2020/12/20 08:34:42;;;;;;;15.40;10.38;;;9.30;99.90;;;;;;5080763;28;20020;-69
2020/12/20 08:37:10;;;;;;;14.30;10.18;;;9.30;99.90;;;;;;5075777;28;20024;-69
2020/12/20 08:39:36;;;;;;;18.23;11.25;;;9.40;99.90;;;;;;5076724;28;20117;-69
2020/12/20 08:42:07;;;;;;;14.90;11.10;;;9.40;99.90;;;;;;5075661;28;20235;-69
2020/12/20 08:44:33;;;;;;;14.73;10.75;;;9.40;99.90;;;;;;5076608;28;20012;-69
2020/12/20 08:47:09;;;;;;;14.30;9.68;;;9.50;99.90;;;;;;5076259;28;20025;-69
2020/12/20 08:49:35;;;;;;;14.00;10.07;;;9.50;99.90;;;;;;5076011;28;20013;-69
2020/12/20 08:52:12;;;;;;;15.48;10.32;;;9.50;99.90;;;;;;5076461;28;20472;-69
2020/12/20 08:54:38;;;;;;;14.82;9.98;;;9.60;99.90;;;;;;5076392;28;20095;-69
2020/12/20 08:57:07;;;;;;;15.93;10.88;;;9.50;99.90;;;;;;5074963;28;20055;-69
2020/12/20 08:59:35;;;;;;;17.58;11.32;;;9.50;99.90;;;;;;5076283;28;20094;-69
2020/12/20 09:02:02;;;;;;;18.33;11.98;;;9.50;99.90;;;;;;5076022;28;20024;-69
2020/12/20 09:04:31;;;;;;;14.20;10.90;;;9.60;99.90;;;;;;5074943;28;20070;-69
2020/12/20 09:06:58;;;;;;;14.85;11.07;;;9.60;99.90;;;;;;5076151;28;20016;-69
2020/12/20 09:09:25;;;;;;;16.98;11.45;;;9.70;99.90;;;;;;5076112;28;20466;-69
2020/12/20 09:11:51;;;;;;;18.48;12.48;;;9.90;99.90;;;;;;5076033;28;20016;-69
2020/12/20 09:14:17;;;;;;;18.15;11.60;;;10.20;99.90;;;;;;5075449;28;20046;-69
2020/12/20 09:16:43;;;;;;;15.57;11.38;;;10.50;99.90;;;;;;5075391;28;20063;-69
2020/12/20 09:19:10;;;;;;;14.60;11.43;;;10.60;99.90;;;;;;5075950;28;20453;-69
2020/12/20 09:21:36;;;;;;;17.67;11.70;;;10.70;99.90;;;;;;5075901;28;20020;-69
2020/12/20 09:24:02;;;;;;;15.32;11.45;;;10.80;99.90;;;;;;5075107;28;20048;-69
2020/12/20 09:26:27;;;;;;;18.13;12.13;;;11.00;99.90;;;;;;5075837;28;20074;-69
2020/12/20 09:28:53;;;;;;;17.02;10.80;;;10.90;99.90;;;;;;5074450;28;20017;-68
2020/12/20 09:31:20;;;;;;;14.88;11.40;;;11.00;99.90;;;;;;5075114;28;20020;-68
2020/12/20 09:33:48;;;;;;;15.98;11.52;;;11.00;99.90;;;;;;5075341;28;20020;-69
2020/12/20 09:36:23;;;;;;;17.77;11.77;;;11.00;99.90;;;;;;5075577;28;20483;-69
2020/12/20 09:38:51;;;;;;;13.50;10.13;;;11.20;99.90;;;;;;5075460;28;20086;-69
2020/12/20 09:41:20;;;;;;;11.48;9.23;;;11.70;99.90;;;;;;5075499;28;20031;-69
2020/12/20 09:43:47;;;;;;;11.27;9.20;;;12.40;99.90;;;;;;5075382;28;20432;-69
2020/12/20 09:46:29;;;;;;;11.70;8.52;;;12.90;99.90;;;;;;5074136;28;20013;-68
2020/12/20 09:48:57;;;;;;;11.70;8.23;;;13.60;99.90;;;;;;5075329;28;20118;-69
2020/12/20 09:51:23;;;;;;;11.48;8.40;;;14.70;99.90;;;;;;5075305;28;20031;-69
2020/12/20 09:53:50;;;;;;;10.05;8.20;;;14.70;99.90;;;;;;5074688;28;20028;-69
2020/12/20 09:56:16;;;;;;;12.35;9.23;;;14.30;99.90;;;;;;5073787;28;20078;-68
2020/12/20 09:58:42;;;;;;;12.52;8.75;;;13.40;99.90;;;;;;5075147;28;20032;-68
2020/12/20 10:01:18;;;;;;;14.85;9.25;;;12.90;99.90;;;;;;5075088;28;20040;-69
2020/12/20 10:03:44;;;;;;;10.35;8.05;;;12.50;99.90;;;;;;5075051;28;20020;-68
2020/12/20 10:06:09;;;;;;;11.27;8.10;;;12.30;99.90;;;;;;5073239;28;20045;-68
2020/12/20 10:08:35;;;;;;;12.90;8.50;;;12.20;99.90;;;;;;5073211;28;20052;-68
2020/12/20 10:11:01;;;;;;;13.23;8.80;;;12.50;99.90;;;;;;5073516;28;20519;-68
2020/12/20 10:13:27;;;;;;;11.63;8.57;;;12.90;99.90;;;;;;5074365;28;20029;-69
2020/12/20 10:15:52;;;;;;;11.13;8.20;;;13.10;99.90;;;;;;5073859;28;20373;-69
2020/12/20 10:18:18;;;;;;;13.10;8.45;;;13.10;99.90;;;;;;5074488;28;20377;-69
2020/12/20 10:20:44;;;;;;;12.13;8.27;;;13.10;99.90;;;;;;5074722;28;20059;-69
2020/12/20 10:23:10;;;;;;;10.25;7.68;;;13.10;99.90;;;;;;5072668;28;20045;-69
2020/12/20 10:25:35;;;;;;;11.40;7.93;;;13.20;99.90;;;;;;5074129;28;20027;-68
2020/12/20 10:28:01;;;;;;;10.18;7.88;;;13.00;99.90;;;;;;5072867;28;20021;-68
2020/12/20 10:30:27;;;;;;;11.50;7.63;;;12.60;99.90;;;;;;5074060;28;20017;-68
2020/12/20 10:32:54;;;;;;;12.63;8.40;;;12.60;99.90;;;;;;5074510;28;20393;-68
2020/12/20 10:35:23;;;;;;;13.18;8.93;;;12.40;99.90;;;;;;5074439;28;20028;-68
2020/12/20 10:37:51;;;;;;;13.23;8.20;;;12.30;99.90;;;;;;5074177;28;20036;-68
2020/12/20 10:40:17;;;;;;;13.57;7.93;;;12.10;99.90;;;;;;5074152;28;20028;-68
2020/12/20 10:42:45;;;;;;;9.88;7.25;;;12.00;99.90;;;;;;5074064;28;20035;-68
2020/12/20 10:45:11;;;;;;;12.18;7.85;;;11.90;99.90;;;;;;5073989;28;20013;-68
2020/12/20 10:47:36;;;;;;;13.05;8.00;;;12.00;99.90;;;;;;5073755;28;20035;-68
2020/12/20 10:50:02;;;;;;;10.40;7.63;;;12.20;99.90;;;;;;5074260;28;20025;-68
2020/12/20 10:52:28;;;;;;;14.80;7.32;;;12.20;99.90;;;;;;5074233;28;20032;-68
2020/12/20 10:54:54;;;;;;;11.32;7.55;;;12.40;99.90;;;;;;5073888;28;20416;-68
2020/12/20 10:57:19;;;;;;;12.63;6.47;;;12.90;99.90;;;;;;5073926;28;20032;-68
2020/12/20 10:59:45;;;;;;;8.23;6.40;;;13.00;99.90;;;;;;5074176;28;20438;-68
2020/12/20 11:02:10;;;;;;;12.98;6.57;;;12.80;99.90;;;;;;5073806;28;20043;-68
2020/12/20 11:04:36;;;;;;;11.05;7.53;;;12.40;99.90;;;;;;5073493;28;20021;-68
2020/12/20 11:07:02;;;;;;;11.60;6.82;;;12.20;99.90;;;;;;5073766;28;20024;-69
2020/12/20 11:09:28;;;;;;;10.27;6.50;;;12.00;99.90;;;;;;5074057;28;20403;-68
2020/12/20 11:11:54;;;;;;;12.23;6.72;;;12.10;99.90;;;;;;5074068;28;20056;-68
2020/12/20 11:14:21;;;;;;;12.85;6.93;;;12.20;99.90;;;;;;5072153;28;20021;-69
2020/12/20 11:16:54;;;;;;;11.35;6.97;;;12.20;99.90;;;;;;5072187;28;20381;-68
2020/12/20 11:19:21;;;;;;;10.10;6.75;;;12.10;99.90;;;;;;5073938;28;20094;-68
2020/12/20 11:21:49;;;;;;;10.35;6.47;;;12.10;99.90;;;;;;5073584;28;20101;-69
2020/12/20 11:24:15;;;;;;;9.43;5.68;;;12.30;99.90;;;;;;5073896;28;20074;-68
2020/12/20 11:26:42;;;;;;;11.40;6.20;;;12.80;99.90;;;;;;5073555;28;20021;-69
2020/12/20 11:29:09;;;;;;;9.85;6.72;;;12.90;99.90;;;;;;5073914;28;20086;-68
2020/12/20 11:31:34;;;;;;;11.48;6.10;;;12.70;99.90;;;;;;5073809;28;20020;-68
2020/12/20 11:34:00;;;;;;;11.05;5.95;;;12.60;99.90;;;;;;5073233;28;20111;-68
2020/12/20 11:36:25;;;;;;;10.77;5.72;;;12.60;99.90;;;;;;5072398;28;20056;-69
2020/12/20 11:38:51;;;;;;;9.57;5.53;;;12.70;99.90;;;;;;5073804;28;20458;-68
2020/12/20 11:41:21;;;;;;;14.55;6.15;;;12.70;99.90;;;;;;5073251;28;20074;-68
2020/12/20 11:43:47;;;;;;;13.13;6.18;;;12.40;99.90;;;;;;5073664;28;20505;-68
2020/12/20 11:46:12;;;;;;;12.88;6.20;;;12.30;99.90;;;;;;5073697;28;20100;-68
2020/12/20 11:48:38;;;;;;;10.98;5.95;;;12.30;99.90;;;;;;5073663;28;20025;-69
2020/12/20 11:51:04;;;;;;;8.35;5.75;;;12.30;99.90;;;;;;5073622;28;20096;-68
2020/12/20 11:53:30;;;;;;;9.10;6.22;;;12.20;99.90;;;;;;5073643;28;20458;-68
2020/12/20 11:55:55;;;;;;;14.18;6.53;;;12.10;99.90;;;;;;5073630;28;20162;-68
2020/12/20 11:58:21;;;;;;;12.52;6.13;;;12.10;99.90;;;;;;5071758;28;20058;-69
2020/12/20 12:00:49;;;;;;;14.68;7.88;;;12.00;99.90;;;;;;5073549;28;20033;-69
2020/12/20 12:03:15;;;;;;;13.63;6.47;;;11.90;99.90;;;;;;5072891;28;20036;-69
2020/12/20 12:05:42;;;;;;;11.32;6.47;;;11.90;99.90;;;;;;5071701;28;20102;-69
2020/12/20 12:08:08;;;;;;;13.07;5.80;;;11.80;99.90;;;;;;5073463;28;20016;-68
2020/12/20 12:10:35;;;;;;;13.82;5.93;;;11.90;99.90;;;;;;5076312;28;20416;-68
2020/12/20 12:13:02;;;;;;;15.88;6.00;;;11.90;99.90;;;;;;5076924;28;20020;-69
2020/12/20 12:15:28;;;;;;;12.77;5.72;;;11.80;99.90;;;;;;5076877;28;20028;-69
2020/12/20 12:17:54;;;;;;;11.18;6.13;;;11.80;99.90;;;;;;5077129;28;20170;-69
2020/12/20 12:20:20;;;;;;;9.57;5.53;;;11.90;99.90;;;;;;5075626;28;20025;-68
2020/12/20 12:22:46;;;;;;;12.80;5.70;;;11.80;99.90;;;;;;5076528;28;20055;-69
2020/12/20 12:25:13;;;;;;;12.80;6.13;;;11.80;99.90;;;;;;5076969;28;20396;-69
2020/12/20 12:27:39;;;;;;;14.82;5.85;;;11.80;99.90;;;;;;5075161;28;20021;-69
2020/12/20 12:30:05;;;;;;;11.85;5.85;;;11.80;99.90;;;;;;5075338;28;20025;-69
2020/12/20 12:32:30;;;;;;;11.65;6.18;;;11.80;99.90;;;;;;5075380;28;20028;-69
2020/12/20 12:34:56;;;;;;;10.73;6.43;;;11.80;99.90;;;;;;5076859;28;20036;-69
2020/12/20 12:37:22;;;;;;;12.20;5.60;;;11.90;99.90;;;;;;5076756;28;20035;-69
2020/12/20 12:39:48;;;;;;;17.05;6.03;;;11.80;99.90;;;;;;5076143;28;20032;-69
2020/12/20 12:42:13;;;;;;;11.45;5.70;;;11.80;99.90;;;;;;5076542;28;20055;-69
2020/12/20 12:44:42;;;;;;;13.27;5.63;;;11.80;99.90;;;;;;5075386;28;20473;-69
2020/12/20 12:47:08;;;;;;;12.02;5.25;;;11.80;99.90;;;;;;5076589;28;20027;-69
2020/12/20 12:49:34;;;;;;;12.55;5.45;;;11.80;99.90;;;;;;5075991;28;20376;-68
2020/12/20 12:52:00;;;;;;;13.63;5.22;;;11.80;99.90;;;;;;5076209;28;20091;-69
2020/12/20 12:54:26;;;;;;;10.88;5.00;;;11.80;99.90;;;;;;5076533;28;20025;-69
2020/12/20 12:56:52;;;;;;;12.93;4.97;;;11.80;99.90;;;;;;5075824;28;20032;-69